sensor_id;sensor_type;location;lat;lon;timestamp;pressure;altitude;pressure_sealevel;temperature;humidity
68712;BME280;55690;51.566;19.198;2023-03-16T00:01:37;101932.13;;;4.24;77.22
68712;BME280;55690;51.566;19.198;2023-03-16T00:05:49;101934.11;;;4.18;77.67
68712;BME280;55690;51.566;19.198;2023-03-16T00:09:51;101937.55;;;4.23;77.33
68712;BME280;55690;51.566;19.198;2023-03-16T00:13:56;101925.74;;;4.28;77.03
68712;BME280;55690;51.566;19.198;2023-03-16T00:18:02;101932.92;;;4.28;76.12
68712;BME280;55690;51.566;19.198;2023-03-16T00:22:08;101940.19;;;3.92;77.37
68712;BME280;55690;51.566;19.198;2023-03-16T00:26:14;101944.52;;;3.97;77.16
68712;BME280;55690;51.566;19.198;2023-03-16T00:30:20;101950.29;;;3.84;77.54
68712;BME280;55690;51.566;19.198;2023-03-16T00:34:27;101948.45;;;3.86;77.31
68712;BME280;55690;51.566;19.198;2023-03-16T00:38:39;101947.09;;;3.70;78.42
68712;BME280;55690;51.566;19.198;2023-03-16T00:42:45;101947.16;;;3.66;78.26
68712;BME280;55690;51.566;19.198;2023-03-16T00:46:47;101950.34;;;3.82;77.59
68712;BME280;55690;51.566;19.198;2023-03-16T00:50:51;101947.52;;;3.87;77.09
68712;BME280;55690;51.566;19.198;2023-03-16T00:54:57;101945.72;;;3.87;77.34
68712;BME280;55690;51.566;19.198;2023-03-16T00:59:04;101943.77;;;3.92;77.19
68712;BME280;55690;51.566;19.198;2023-03-16T01:03:10;101937.38;;;3.64;77.32
68712;BME280;55690;51.566;19.198;2023-03-16T01:07:16;101953.98;;;3.80;76.77
68712;BME280;55690;51.566;19.198;2023-03-16T01:11:22;101945.88;;;3.81;76.82
68712;BME280;55690;51.566;19.198;2023-03-16T01:15:29;101944.57;;;3.96;76.32
68712;BME280;55690;51.566;19.198;2023-03-16T01:19:36;101954.83;;;3.82;76.88
68712;BME280;55690;51.566;19.198;2023-03-16T01:23:41;101958.39;;;3.82;76.59
68712;BME280;55690;51.566;19.198;2023-03-16T01:27:47;101956.80;;;3.75;76.84
68712;BME280;55690;51.566;19.198;2023-03-16T01:31:53;101960.63;;;3.65;77.21
68712;BME280;55690;51.566;19.198;2023-03-16T01:36:03;101958.67;;;3.72;77.40
68712;BME280;55690;51.566;19.198;2023-03-16T01:40:07;101958.13;;;3.57;76.73
68712;BME280;55690;51.566;19.198;2023-03-16T01:44:14;101965.50;;;3.49;77.42
68712;BME280;55690;51.566;19.198;2023-03-16T01:48:19;101967.60;;;3.38;77.46
68712;BME280;55690;51.566;19.198;2023-03-16T01:52:28;101975.18;;;3.56;77.18
68712;BME280;55690;51.566;19.198;2023-03-16T01:56:47;101971.49;;;3.60;77.18
68712;BME280;55690;51.566;19.198;2023-03-16T02:00:44;101976.86;;;3.60;77.51
68712;BME280;55690;51.566;19.198;2023-03-16T02:09:00;101971.31;;;3.32;78.45
68712;BME280;55690;51.566;19.198;2023-03-16T02:13:03;101970.72;;;3.55;77.73
68712;BME280;55690;51.566;19.198;2023-03-16T02:17:05;101970.58;;;3.61;78.01
68712;BME280;55690;51.566;19.198;2023-03-16T02:25:24;101987.45;;;3.66;76.82
68712;BME280;55690;51.566;19.198;2023-03-16T02:33:41;101995.33;;;3.74;76.75
68712;BME280;55690;51.566;19.198;2023-03-16T02:37:43;102000.34;;;3.52;78.00
68712;BME280;55690;51.566;19.198;2023-03-16T02:41:45;102001.22;;;3.53;77.45
68712;BME280;55690;51.566;19.198;2023-03-16T02:45:51;102010.38;;;3.46;77.21
68712;BME280;55690;51.566;19.198;2023-03-16T02:49:53;102010.48;;;3.41;76.89
68712;BME280;55690;51.566;19.198;2023-03-16T02:53:57;102028.99;;;3.15;77.93
68712;BME280;55690;51.566;19.198;2023-03-16T02:58:03;102019.14;;;3.52;77.17
68712;BME280;55690;51.566;19.198;2023-03-16T03:02:10;102034.65;;;3.41;76.92
68712;BME280;55690;51.566;19.198;2023-03-16T03:06:16;102033.20;;;3.26;77.68
68712;BME280;55690;51.566;19.198;2023-03-16T03:10:22;102037.79;;;3.21;77.83
68712;BME280;55690;51.566;19.198;2023-03-16T03:14:28;102043.03;;;3.27;77.38
68712;BME280;55690;51.566;19.198;2023-03-16T03:18:34;102039.28;;;3.34;77.45
68712;BME280;55690;51.566;19.198;2023-03-16T03:22:41;102045.74;;;3.26;77.62
68712;BME280;55690;51.566;19.198;2023-03-16T03:26:47;102049.98;;;3.36;77.70
68712;BME280;55690;51.566;19.198;2023-03-16T03:30:53;102057.19;;;3.34;77.36
68712;BME280;55690;51.566;19.198;2023-03-16T03:34:59;102061.40;;;3.46;77.53
68712;BME280;55690;51.566;19.198;2023-03-16T03:39:05;102055.45;;;3.31;77.34
68712;BME280;55690;51.566;19.198;2023-03-16T03:43:11;102062.59;;;3.32;77.58
68712;BME280;55690;51.566;19.198;2023-03-16T03:47:19;102069.08;;;3.22;77.82
68712;BME280;55690;51.566;19.198;2023-03-16T03:51:24;102061.81;;;3.27;77.31
68712;BME280;55690;51.566;19.198;2023-03-16T03:55:30;102070.58;;;2.95;78.18
68712;BME280;55690;51.566;19.198;2023-03-16T03:59:36;102074.44;;;2.82;78.47
68712;BME280;55690;51.566;19.198;2023-03-16T04:03:44;102073.77;;;2.71;79.23
68712;BME280;55690;51.566;19.198;2023-03-16T04:07:48;102069.74;;;2.93;78.58
68712;BME280;55690;51.566;19.198;2023-03-16T04:11:57;102072.36;;;2.96;77.65
68712;BME280;55690;51.566;19.198;2023-03-16T04:16:01;102066.30;;;2.87;77.79
68712;BME280;55690;51.566;19.198;2023-03-16T04:20:10;102066.11;;;2.96;76.97
68712;BME280;55690;51.566;19.198;2023-03-16T04:24:18;102078.77;;;2.89;77.72
68712;BME280;55690;51.566;19.198;2023-03-16T04:28:22;102077.16;;;3.21;77.03
68712;BME280;55690;51.566;19.198;2023-03-16T04:32:26;102072.75;;;3.18;76.70
68712;BME280;55690;51.566;19.198;2023-03-16T04:36:32;102079.14;;;3.13;77.09
68712;BME280;55690;51.566;19.198;2023-03-16T04:40:38;102083.02;;;2.99;77.76
68712;BME280;55690;51.566;19.198;2023-03-16T04:44:44;102084.98;;;3.31;76.92
68712;BME280;55690;51.566;19.198;2023-03-16T04:48:51;102092.03;;;3.37;76.43
68712;BME280;55690;51.566;19.198;2023-03-16T04:52:57;102094.71;;;3.37;76.67
68712;BME280;55690;51.566;19.198;2023-03-16T04:57:03;102105.50;;;2.94;76.85
68712;BME280;55690;51.566;19.198;2023-03-16T05:01:09;102106.71;;;2.78;77.36
68712;BME280;55690;51.566;19.198;2023-03-16T05:05:16;102106.45;;;2.91;76.64
68712;BME280;55690;51.566;19.198;2023-03-16T05:09:21;102113.48;;;2.97;76.72
68712;BME280;55690;51.566;19.198;2023-03-16T05:13:28;102123.97;;;3.08;77.05
68712;BME280;55690;51.566;19.198;2023-03-16T05:17:34;102121.66;;;2.91;76.99
68712;BME280;55690;51.566;19.198;2023-03-16T05:21:40;102120.95;;;2.81;77.18
68712;BME280;55690;51.566;19.198;2023-03-16T05:25:47;102119.57;;;3.04;76.72
68712;BME280;55690;51.566;19.198;2023-03-16T05:29:53;102128.67;;;3.40;76.06
68712;BME280;55690;51.566;19.198;2023-03-16T05:33:59;102127.58;;;3.47;75.75
68712;BME280;55690;51.566;19.198;2023-03-16T05:38:05;102130.88;;;3.59;75.84
68712;BME280;55690;51.566;19.198;2023-03-16T05:42:11;102130.70;;;3.67;75.26
68712;BME280;55690;51.566;19.198;2023-03-16T05:46:18;102137.30;;;3.52;76.24
68712;BME280;55690;51.566;19.198;2023-03-16T05:50:24;102142.20;;;3.74;76.12
68712;BME280;55690;51.566;19.198;2023-03-16T05:54:30;102151.88;;;3.81;77.12
68712;BME280;55690;51.566;19.198;2023-03-16T05:58:36;102124.06;;;3.83;77.17
68712;BME280;55690;51.566;19.198;2023-03-16T06:02:47;102155.63;;;4.11;77.07
68712;BME280;55690;51.566;19.198;2023-03-16T06:06:48;102153.48;;;4.25;77.50
68712;BME280;55690;51.566;19.198;2023-03-16T06:10:54;102152.71;;;4.54;76.89
68712;BME280;55690;51.566;19.198;2023-03-16T06:15:02;102152.51;;;4.61;77.16
68712;BME280;55690;51.566;19.198;2023-03-16T06:19:07;102155.52;;;4.49;77.60
68712;BME280;55690;51.566;19.198;2023-03-16T06:23:13;102166.52;;;4.05;79.98
68712;BME280;55690;51.566;19.198;2023-03-16T06:27:19;102166.81;;;3.92;80.60
68712;BME280;55690;51.566;19.198;2023-03-16T06:31:26;102165.89;;;4.30;80.79
68712;BME280;55690;51.566;19.198;2023-03-16T06:35:32;102163.63;;;4.80;79.46
68712;BME280;55690;51.566;19.198;2023-03-16T06:39:38;102165.77;;;5.31;78.09
68712;BME280;55690;51.566;19.198;2023-03-16T06:43:44;102160.69;;;5.51;78.78
68712;BME280;55690;51.566;19.198;2023-03-16T06:47:50;102160.92;;;5.72;77.79
68712;BME280;55690;51.566;19.198;2023-03-16T06:51:56;102169.86;;;6.03;78.19
68712;BME280;55690;51.566;19.198;2023-03-16T06:56:03;102181.23;;;6.39;77.34
68712;BME280;55690;51.566;19.198;2023-03-16T07:00:11;102179.23;;;7.20;75.39
68712;BME280;55690;51.566;19.198;2023-03-16T07:04:15;102172.96;;;7.88;74.74
68712;BME280;55690;51.566;19.198;2023-03-16T07:08:21;102174.84;;;8.30;73.31
68712;BME280;55690;51.566;19.198;2023-03-16T07:12:27;102176.39;;;8.99;72.12
68712;BME280;55690;51.566;19.198;2023-03-16T07:16:33;102184.76;;;9.14;70.67
68712;BME280;55690;51.566;19.198;2023-03-16T07:20:39;102188.16;;;8.78;71.11
68712;BME280;55690;51.566;19.198;2023-03-16T07:24:46;102185.34;;;9.41;70.80
68712;BME280;55690;51.566;19.198;2023-03-16T07:28:56;102187.77;;;10.03;70.43
68712;BME280;55690;51.566;19.198;2023-03-16T07:32:58;102188.30;;;10.47;68.66
68712;BME280;55690;51.566;19.198;2023-03-16T07:37:04;102193.70;;;10.66;68.27
68712;BME280;55690;51.566;19.198;2023-03-16T07:41:10;102198.14;;;10.50;68.54
68712;BME280;55690;51.566;19.198;2023-03-16T07:45:17;102190.78;;;10.52;68.07
68712;BME280;55690;51.566;19.198;2023-03-16T07:49:23;102193.70;;;10.66;67.77
68712;BME280;55690;51.566;19.198;2023-03-16T07:53:29;102194.80;;;10.96;66.94
68712;BME280;55690;51.566;19.198;2023-03-16T07:57:35;102185.28;;;11.22;66.02
68712;BME280;55690;51.566;19.198;2023-03-16T08:01:41;102188.10;;;11.37;66.52
68712;BME280;55690;51.566;19.198;2023-03-16T08:05:47;102198.16;;;11.02;67.15
68712;BME280;55690;51.566;19.198;2023-03-16T08:09:54;102194.07;;;10.93;66.47
68712;BME280;55690;51.566;19.198;2023-03-16T08:14:00;102199.59;;;10.91;68.36
68712;BME280;55690;51.566;19.198;2023-03-16T08:18:06;102206.72;;;11.11;67.24
68712;BME280;55690;51.566;19.198;2023-03-16T08:22:12;102204.02;;;11.44;66.51
68712;BME280;55690;51.566;19.198;2023-03-16T08:26:20;102199.06;;;11.35;65.51
68712;BME280;55690;51.566;19.198;2023-03-16T08:30:24;102194.83;;;11.29;66.96
68712;BME280;55690;51.566;19.198;2023-03-16T08:34:31;102209.75;;;11.05;67.73
68712;BME280;55690;51.566;19.198;2023-03-16T08:38:38;102200.55;;;11.58;65.83
68712;BME280;55690;51.566;19.198;2023-03-16T08:42:44;102206.52;;;11.64;65.10
68712;BME280;55690;51.566;19.198;2023-03-16T08:46:49;102209.38;;;11.79;64.84
68712;BME280;55690;51.566;19.198;2023-03-16T08:50:56;102217.75;;;11.58;65.41
68712;BME280;55690;51.566;19.198;2023-03-16T08:55:03;102218.20;;;11.99;63.72
68712;BME280;55690;51.566;19.198;2023-03-16T08:59:08;102219.35;;;11.62;63.93
68712;BME280;55690;51.566;19.198;2023-03-16T09:03:14;102224.65;;;11.48;64.25
68712;BME280;55690;51.566;19.198;2023-03-16T09:07:20;102229.28;;;12.12;63.30
68712;BME280;55690;51.566;19.198;2023-03-16T09:11:26;102234.63;;;11.65;63.82
68712;BME280;55690;51.566;19.198;2023-03-16T09:15:33;102229.28;;;12.12;63.91
68712;BME280;55690;51.566;19.198;2023-03-16T09:19:39;102237.93;;;11.87;62.98
68712;BME280;55690;51.566;19.198;2023-03-16T09:23:45;102236.12;;;12.04;64.69
68712;BME280;55690;51.566;19.198;2023-03-16T09:27:51;102232.87;;;12.44;63.28
68712;BME280;55690;51.566;19.198;2023-03-16T09:31:57;102239.80;;;12.03;63.85
68712;BME280;55690;51.566;19.198;2023-03-16T09:36:04;102236.34;;;12.62;62.55
68712;BME280;55690;51.566;19.198;2023-03-16T09:40:22;102237.63;;;12.86;62.06
68712;BME280;55690;51.566;19.198;2023-03-16T09:44:32;102252.73;;;11.31;62.98
68712;BME280;55690;51.566;19.198;2023-03-16T09:48:38;102265.14;;;11.37;64.40
68712;BME280;55690;51.566;19.198;2023-03-16T09:52:53;102243.99;;;11.59;64.41
68712;BME280;55690;51.566;19.198;2023-03-16T09:56:57;102254.84;;;11.09;63.40
68712;BME280;55690;51.566;19.198;2023-03-16T10:05:19;102270.11;;;10.22;64.54
68712;BME280;55690;51.566;19.198;2023-03-16T10:09:31;102257.80;;;11.05;64.08
68712;BME280;55690;51.566;19.198;2023-03-16T10:13:45;102259.84;;;10.65;64.37
68712;BME280;55690;51.566;19.198;2023-03-16T10:26:25;102261.72;;;10.99;60.45
68712;BME280;55690;51.566;19.198;2023-03-16T10:33:33;102266.28;;;10.98;59.09
68712;BME280;55690;51.566;19.198;2023-03-16T10:37:36;102261.06;;;11.28;56.97
68712;BME280;55690;51.566;19.198;2023-03-16T10:41:44;102266.23;;;11.68;57.48
68712;BME280;55690;51.566;19.198;2023-03-16T10:45:46;102265.70;;;10.92;56.63
68712;BME280;55690;51.566;19.198;2023-03-16T10:49:50;102265.92;;;11.56;56.06
68712;BME280;55690;51.566;19.198;2023-03-16T10:54:06;102265.54;;;11.29;55.97
68712;BME280;55690;51.566;19.198;2023-03-16T10:58:08;102271.52;;;10.67;56.04
68712;BME280;55690;51.566;19.198;2023-03-16T11:02:16;102272.28;;;11.05;56.63
68712;BME280;55690;51.566;19.198;2023-03-16T11:06:27;102271.33;;;11.23;57.16
68712;BME280;55690;51.566;19.198;2023-03-16T11:10:37;102272.84;;;11.12;57.93
68712;BME280;55690;51.566;19.198;2023-03-16T11:14:42;102275.69;;;10.74;58.80
68712;BME280;55690;51.566;19.198;2023-03-16T11:18:49;102266.29;;;11.16;59.44
68712;BME280;55690;51.566;19.198;2023-03-16T11:22:54;102276.57;;;10.75;58.13
68712;BME280;55690;51.566;19.198;2023-03-16T11:27:01;102267.92;;;10.84;57.26
68712;BME280;55690;51.566;19.198;2023-03-16T11:40:31;102267.17;;;11.16;56.80
68712;BME280;55690;51.566;19.198;2023-03-16T11:43:55;102266.02;;;11.38;55.58
68712;BME280;55690;51.566;19.198;2023-03-16T11:48:08;102262.80;;;11.47;56.54
68712;BME280;55690;51.566;19.198;2023-03-16T11:52:26;102261.06;;;11.28;57.40
68712;BME280;55690;51.566;19.198;2023-03-16T11:56:36;102257.53;;;11.44;57.96
68712;BME280;55690;51.566;19.198;2023-03-16T12:13:40;102254.38;;;11.18;57.14
68712;BME280;55690;51.566;19.198;2023-03-16T12:17:41;102257.53;;;11.44;56.44
68712;BME280;55690;51.566;19.198;2023-03-16T12:21:46;102247.70;;;11.41;55.85
68712;BME280;55690;51.566;19.198;2023-03-16T12:25:51;102256.49;;;11.46;55.53
68712;BME280;55690;51.566;19.198;2023-03-16T12:30:02;102255.84;;;11.58;55.90
68712;BME280;55690;51.566;19.198;2023-03-16T12:34:15;102252.98;;;11.27;53.88
68712;BME280;55690;51.566;19.198;2023-03-16T12:38:30;102239.06;;;11.33;54.50
68712;BME280;55690;51.566;19.198;2023-03-16T12:51:06;102255.79;;;10.74;56.92
68712;BME280;55690;51.566;19.198;2023-03-16T12:55:15;102263.78;;;10.94;57.57
68712;BME280;55690;51.566;19.198;2023-03-16T12:59:20;102260.84;;;11.16;57.28
68712;BME280;55690;51.566;19.198;2023-03-16T13:03:22;102257.48;;;11.11;57.77
68712;BME280;55690;51.566;19.198;2023-03-16T13:07:27;102248.82;;;11.37;57.71
68712;BME280;55690;51.566;19.198;2023-03-16T13:11:41;102248.96;;;11.51;56.90
68712;BME280;55690;51.566;19.198;2023-03-16T13:15:45;102266.10;;;11.36;57.28
68712;BME280;55690;51.566;19.198;2023-03-16T13:20:24;102254.20;;;11.21;58.33
68712;BME280;55690;51.566;19.198;2023-03-16T13:28:28;102260.07;;;10.60;57.69
68712;BME280;55690;51.566;19.198;2023-03-16T13:32:32;102252.70;;;10.81;58.78
68712;BME280;55690;51.566;19.198;2023-03-16T13:36:36;102260.68;;;11.02;58.33
68712;BME280;55690;51.566;19.198;2023-03-16T13:40:48;102261.64;;;11.00;58.36
68712;BME280;55690;51.566;19.198;2023-03-16T13:44:57;102264.27;;;10.49;57.92
68712;BME280;55690;51.566;19.198;2023-03-16T13:48:59;102261.79;;;10.97;58.68
68712;BME280;55690;51.566;19.198;2023-03-16T13:53:03;102264.24;;;10.85;58.32
68712;BME280;55690;51.566;19.198;2023-03-16T13:57:12;102265.78;;;10.90;57.57
68712;BME280;55690;51.566;19.198;2023-03-16T14:01:27;102266.47;;;10.59;58.00
68712;BME280;55690;51.566;19.198;2023-03-16T14:05:32;102264.16;;;10.69;58.30
68712;BME280;55690;51.566;19.198;2023-03-16T14:09:36;102266.53;;;10.58;57.91
68712;BME280;55690;51.566;19.198;2023-03-16T14:13:40;102269.55;;;10.52;57.18
68712;BME280;55690;51.566;19.198;2023-03-16T14:17:42;102264.02;;;10.72;56.50
68712;BME280;55690;51.566;19.198;2023-03-16T14:21:44;102262.71;;;10.62;56.42
68712;BME280;55690;51.566;19.198;2023-03-16T14:25:47;102254.41;;;10.29;57.16
68712;BME280;55690;51.566;19.198;2023-03-16T14:29:58;102257.05;;;10.30;57.18
68712;BME280;55690;51.566;19.198;2023-03-16T14:34:06;102263.74;;;10.59;57.04
68712;BME280;55690;51.566;19.198;2023-03-16T14:38:38;102254.64;;;10.60;56.68
68712;BME280;55690;51.566;19.198;2023-03-16T14:42:27;102254.48;;;10.63;55.85
68712;BME280;55690;51.566;19.198;2023-03-16T14:46:31;102254.01;;;10.18;55.29
68712;BME280;55690;51.566;19.198;2023-03-16T14:50:34;102258.25;;;10.42;56.53
68712;BME280;55690;51.566;19.198;2023-03-16T14:54:36;102257.58;;;10.56;56.20
68712;BME280;55690;51.566;19.198;2023-03-16T14:58:38;102260.90;;;10.44;55.17
68712;BME280;55690;51.566;19.198;2023-03-16T15:02:42;102254.75;;;10.76;55.20
68712;BME280;55690;51.566;19.198;2023-03-16T15:06:44;102241.49;;;11.05;55.39
68712;BME280;55690;51.566;19.198;2023-03-16T15:10:48;102270.66;;;10.48;57.47
68712;BME280;55690;51.566;19.198;2023-03-16T15:14:51;102268.02;;;10.46;57.73
68712;BME280;55690;51.566;19.198;2023-03-16T15:19:05;102265.78;;;10.73;57.72
68712;BME280;55690;51.566;19.198;2023-03-16T15:23:11;102263.36;;;10.31;58.56
68712;BME280;55690;51.566;19.198;2023-03-16T15:27:19;102263.77;;;10.41;58.26
68712;BME280;55690;51.566;19.198;2023-03-16T15:31:22;102267.14;;;10.46;58.97
68712;BME280;55690;51.566;19.198;2023-03-16T15:35:25;102275.24;;;10.28;59.39
68712;BME280;55690;51.566;19.198;2023-03-16T15:39:26;102273.99;;;10.36;59.29
68712;BME280;55690;51.566;19.198;2023-03-16T15:43:29;102277.85;;;10.11;59.04
68712;BME280;55690;51.566;19.198;2023-03-16T15:47:31;102281.45;;;10.12;59.75
68712;BME280;55690;51.566;19.198;2023-03-16T15:51:32;102280.63;;;10.10;58.91
68712;BME280;55690;51.566;19.198;2023-03-16T15:55:43;102290.03;;;10.40;59.22
68712;BME280;55690;51.566;19.198;2023-03-16T15:59:46;102299.20;;;10.19;59.16
68712;BME280;55690;51.566;19.198;2023-03-16T16:03:49;102302.84;;;10.38;59.79
68712;BME280;55690;51.566;19.198;2023-03-16T16:07:52;102307.90;;;10.27;59.78
68712;BME280;55690;51.566;19.198;2023-03-16T16:11:54;102306.66;;;10.34;59.86
68712;BME280;55690;51.566;19.198;2023-03-16T16:15:56;102312.01;;;9.96;60.10
68712;BME280;55690;51.566;19.198;2023-03-16T16:19:57;102309.25;;;10.17;60.46
68712;BME280;55690;51.566;19.198;2023-03-16T16:24:00;102312.68;;;10.01;60.83
68712;BME280;55690;51.566;19.198;2023-03-16T16:28:15;102306.16;;;10.06;61.35
68712;BME280;55690;51.566;19.198;2023-03-16T16:32:21;102323.11;;;10.11;61.24
68712;BME280;55690;51.566;19.198;2023-03-16T16:36:23;102327.51;;;9.94;60.21
68712;BME280;55690;51.566;19.198;2023-03-16T16:40:32;102342.31;;;9.67;60.53
68712;BME280;55690;51.566;19.198;2023-03-16T16:44:36;102343.80;;;9.74;61.01
68712;BME280;55690;51.566;19.198;2023-03-16T16:48:40;102354.51;;;9.57;61.13
68712;BME280;55690;51.566;19.198;2023-03-16T16:52:42;102359.06;;;9.36;62.13
68712;BME280;55690;51.566;19.198;2023-03-16T16:56:44;102359.30;;;9.10;62.03
68712;BME280;55690;51.566;19.198;2023-03-16T17:00:50;102366.62;;;9.08;62.28
68712;BME280;55690;51.566;19.198;2023-03-16T17:04:53;102375.97;;;9.21;62.30
68712;BME280;55690;51.566;19.198;2023-03-16T17:08:54;102363.23;;;9.23;62.16
68712;BME280;55690;51.566;19.198;2023-03-16T17:12:56;102369.48;;;9.25;62.32
68712;BME280;55690;51.566;19.198;2023-03-16T17:17:00;102366.56;;;9.09;62.12
68712;BME280;55690;51.566;19.198;2023-03-16T17:21:02;102378.67;;;9.21;62.23
68712;BME280;55690;51.566;19.198;2023-03-16T17:25:07;102372.48;;;8.97;62.47
68712;BME280;55690;51.566;19.198;2023-03-16T17:33:24;102388.05;;;8.47;63.26
68712;BME280;55690;51.566;19.198;2023-03-16T17:37:33;102383.48;;;8.24;63.58
68712;BME280;55690;51.566;19.198;2023-03-16T17:41:35;102390.04;;;8.18;64.13
68712;BME280;55690;51.566;19.198;2023-03-16T17:45:36;102388.77;;;8.04;64.46
68712;BME280;55690;51.566;19.198;2023-03-16T17:49:38;102395.57;;;7.90;64.79
68712;BME280;55690;51.566;19.198;2023-03-16T17:53:41;102401.76;;;7.94;64.96
68712;BME280;55690;51.566;19.198;2023-03-16T17:57:43;102398.16;;;7.93;65.15
68712;BME280;55690;51.566;19.198;2023-03-16T18:01:45;102408.89;;;7.72;64.76
68712;BME280;55690;51.566;19.198;2023-03-16T18:05:47;102411.09;;;7.60;65.03
68712;BME280;55690;51.566;19.198;2023-03-16T18:09:48;102413.52;;;7.42;65.77
68712;BME280;55690;51.566;19.198;2023-03-16T18:13:50;102413.91;;;7.31;66.11
68712;BME280;55690;51.566;19.198;2023-03-16T18:17:53;102418.80;;;7.20;66.11
68712;BME280;55690;51.566;19.198;2023-03-16T18:21:55;102421.64;;;7.15;66.10
68712;BME280;55690;51.566;19.198;2023-03-16T18:25:59;102418.88;;;6.90;66.32
68712;BME280;55690;51.566;19.198;2023-03-16T18:30:04;102422.09;;;7.29;64.52
68712;BME280;55690;51.566;19.198;2023-03-16T18:34:06;102431.55;;;6.88;65.62
68712;BME280;55690;51.566;19.198;2023-03-16T18:38:18;102425.63;;;7.04;66.16
68712;BME280;55690;51.566;19.198;2023-03-16T18:42:25;102424.55;;;7.09;64.44
68712;BME280;55690;51.566;19.198;2023-03-16T18:46:34;102428.61;;;6.94;65.84
68712;BME280;55690;51.566;19.198;2023-03-16T18:50:38;102437.09;;;6.54;66.51
68712;BME280;55690;51.566;19.198;2023-03-16T18:54:43;102438.44;;;6.40;66.80
68712;BME280;55690;51.566;19.198;2023-03-16T18:58:48;102425.93;;;6.37;66.25
68712;BME280;55690;51.566;19.198;2023-03-16T19:02:56;102436.02;;;5.99;67.31
68712;BME280;55690;51.566;19.198;2023-03-16T19:06:58;102446.81;;;5.64;68.90
68712;BME280;55690;51.566;19.198;2023-03-16T19:11:01;102439.77;;;5.60;68.52
68712;BME280;55690;51.566;19.198;2023-03-16T19:19:17;102444.66;;;5.78;67.77
68712;BME280;55690;51.566;19.198;2023-03-16T19:23:26;102443.88;;;5.73;67.55
68712;BME280;55690;51.566;19.198;2023-03-16T19:27:33;102452.09;;;5.34;69.85
68712;BME280;55690;51.566;19.198;2023-03-16T19:31:38;102452.78;;;5.43;69.57
68712;BME280;55690;51.566;19.198;2023-03-16T19:35:39;102461.79;;;5.76;67.84
68712;BME280;55690;51.566;19.198;2023-03-16T19:39:41;102457.13;;;5.82;66.92
68712;BME280;55690;51.566;19.198;2023-03-16T19:43:44;102461.95;;;5.69;67.95
68712;BME280;55690;51.566;19.198;2023-03-16T19:47:46;102459.02;;;5.45;68.31
68712;BME280;55690;51.566;19.198;2023-03-16T19:51:49;102461.17;;;5.30;69.81
68712;BME280;55690;51.566;19.198;2023-03-16T19:55:52;102458.58;;;4.89;70.22
68712;BME280;55690;51.566;19.198;2023-03-16T19:59:55;102452.00;;;5.02;70.18
68712;BME280;55690;51.566;19.198;2023-03-16T20:03:57;102444.88;;;5.35;68.89
68712;BME280;55690;51.566;19.198;2023-03-16T20:08:00;102451.13;;;5.37;68.42
68712;BME280;55690;51.566;19.198;2023-03-16T20:12:02;102448.06;;;5.17;68.89
68712;BME280;55690;51.566;19.198;2023-03-16T20:16:04;102459.12;;;5.05;69.63
68712;BME280;55690;51.566;19.198;2023-03-16T20:24:21;102463.52;;;4.70;71.13
68712;BME280;55690;51.566;19.198;2023-03-16T20:28:33;102461.20;;;4.92;71.51
68712;BME280;55690;51.566;19.198;2023-03-16T20:32:39;102460.11;;;5.00;70.86
68712;BME280;55690;51.566;19.198;2023-03-16T20:36:42;102457.31;;;5.05;69.74
68712;BME280;55690;51.566;19.198;2023-03-16T20:40:46;102458.45;;;4.95;70.99
68712;BME280;55690;51.566;19.198;2023-03-16T20:44:48;102461.84;;;5.03;70.30
68712;BME280;55690;51.566;19.198;2023-03-16T20:48:52;102476.73;;;4.79;71.10
68712;BME280;55690;51.566;19.198;2023-03-16T20:52:58;102482.94;;;4.83;70.95
68712;BME280;55690;51.566;19.198;2023-03-16T20:57:05;102476.91;;;4.73;71.52
68712;BME280;55690;51.566;19.198;2023-03-16T21:01:12;102482.12;;;4.79;70.58
68712;BME280;55690;51.566;19.198;2023-03-16T21:05:18;102481.96;;;4.87;70.56
68712;BME280;55690;51.566;19.198;2023-03-16T21:09:23;102493.19;;;4.67;71.77
68712;BME280;55690;51.566;19.198;2023-03-16T21:13:35;102495.18;;;4.57;71.58
68712;BME280;55690;51.566;19.198;2023-03-16T21:17:37;102494.25;;;4.58;71.37
68712;BME280;55690;51.566;19.198;2023-03-16T21:21:42;102494.35;;;4.54;71.30
68712;BME280;55690;51.566;19.198;2023-03-16T21:25:56;102490.14;;;4.41;72.09
68712;BME280;55690;51.566;19.198;2023-03-16T21:30:04;102483.69;;;4.49;71.53
68712;BME280;55690;51.566;19.198;2023-03-16T21:34:22;102481.59;;;4.63;71.27
68712;BME280;55690;51.566;19.198;2023-03-16T21:38:19;102477.45;;;4.47;71.93
68712;BME280;55690;51.566;19.198;2023-03-16T21:42:21;102469.63;;;4.35;72.95
68712;BME280;55690;51.566;19.198;2023-03-16T21:46:23;102481.58;;;4.22;72.82
68712;BME280;55690;51.566;19.198;2023-03-16T21:50:30;102470.79;;;4.23;72.37
68712;BME280;55690;51.566;19.198;2023-03-16T21:54:33;102464.59;;;4.20;72.48
68712;BME280;55690;51.566;19.198;2023-03-16T21:58:37;102474.00;;;3.96;73.26
68712;BME280;55690;51.566;19.198;2023-03-16T22:02:44;102471.36;;;3.93;73.29
68712;BME280;55690;51.566;19.198;2023-03-16T22:06:49;102468.40;;;4.08;72.07
68712;BME280;55690;51.566;19.198;2023-03-16T22:10:56;102460.39;;;4.05;72.65
68712;BME280;55690;51.566;19.198;2023-03-16T22:15:04;102458.64;;;4.03;72.52
68712;BME280;55690;51.566;19.198;2023-03-16T22:19:11;102467.73;;;3.95;72.22
68712;BME280;55690;51.566;19.198;2023-03-16T22:23:31;102476.22;;;3.74;73.50
68712;BME280;55690;51.566;19.198;2023-03-16T22:27:33;102476.69;;;3.96;72.51
68712;BME280;55690;51.566;19.198;2023-03-16T22:31:36;102473.89;;;4.02;72.82